sensor_id;sensor_type;location;lat;lon;timestamp;P1;durP1;ratioP1;P2;durP2;ratioP2
74510;SDS011;62991;50.040;18.400;2024-03-02T00:01:07;56.50;;;21.33;;
74510;SDS011;62991;50.040;18.400;2024-03-02T00:04:07;58.50;;;21.92;;
74510;SDS011;62991;50.040;18.400;2024-03-02T00:07:08;59.35;;;22.63;;
74510;SDS011;62991;50.040;18.400;2024-03-02T00:10:10;59.75;;;21.48;;
74510;SDS011;62991;50.040;18.400;2024-03-02T00:13:12;56.63;;;21.48;;
74510;SDS011;62991;50.040;18.400;2024-03-02T00:16:13;56.22;;;21.60;;
74510;SDS011;62991;50.040;18.400;2024-03-02T00:19:14;59.75;;;21.33;;
74510;SDS011;62991;50.040;18.400;2024-03-02T00:22:14;58.65;;;21.38;;
74510;SDS011;62991;50.040;18.400;2024-03-02T00:25:15;55.65;;;21.27;;
74510;SDS011;62991;50.040;18.400;2024-03-02T00:28:29;53.50;;;20.58;;
74510;SDS011;62991;50.040;18.400;2024-03-02T00:31:34;55.20;;;20.58;;
74510;SDS011;62991;50.040;18.400;2024-03-02T00:34:35;46.53;;;19.02;;
74510;SDS011;62991;50.040;18.400;2024-03-02T00:37:36;53.00;;;20.90;;
74510;SDS011;62991;50.040;18.400;2024-03-02T00:40:36;52.72;;;19.98;;
74510;SDS011;62991;50.040;18.400;2024-03-02T00:43:44;54.83;;;22.35;;
74510;SDS011;62991;50.040;18.400;2024-03-02T00:46:59;50.40;;;19.58;;
74510;SDS011;62991;50.040;18.400;2024-03-02T00:50:00;57.72;;;21.40;;
74510;SDS011;62991;50.040;18.400;2024-03-02T00:53:01;55.40;;;22.40;;
74510;SDS011;62991;50.040;18.400;2024-03-02T00:56:02;51.20;;;21.25;;
74510;SDS011;62991;50.040;18.400;2024-03-02T00:59:03;56.90;;;22.75;;
74510;SDS011;62991;50.040;18.400;2024-03-02T01:02:04;57.85;;;21.77;;
74510;SDS011;62991;50.040;18.400;2024-03-02T01:05:04;53.80;;;21.50;;
74510;SDS011;62991;50.040;18.400;2024-03-02T01:08:05;54.65;;;20.83;;
74510;SDS011;62991;50.040;18.400;2024-03-02T01:11:06;55.85;;;21.10;;
74510;SDS011;62991;50.040;18.400;2024-03-02T01:14:07;62.08;;;22.17;;
74510;SDS011;62991;50.040;18.400;2024-03-02T01:17:08;53.30;;;21.58;;
74510;SDS011;62991;50.040;18.400;2024-03-02T01:20:09;53.72;;;20.85;;
74510;SDS011;62991;50.040;18.400;2024-03-02T01:23:10;52.50;;;20.42;;
74510;SDS011;62991;50.040;18.400;2024-03-02T01:26:11;50.10;;;20.70;;
74510;SDS011;62991;50.040;18.400;2024-03-02T01:29:11;47.90;;;20.80;;
74510;SDS011;62991;50.040;18.400;2024-03-02T01:32:12;49.45;;;20.58;;
74510;SDS011;62991;50.040;18.400;2024-03-02T01:35:13;51.15;;;21.27;;
74510;SDS011;62991;50.040;18.400;2024-03-02T01:38:14;44.92;;;18.75;;
74510;SDS011;62991;50.040;18.400;2024-03-02T01:41:15;49.17;;;19.80;;
74510;SDS011;62991;50.040;18.400;2024-03-02T01:44:16;45.97;;;19.33;;
74510;SDS011;62991;50.040;18.400;2024-03-02T01:47:17;51.05;;;20.67;;
74510;SDS011;62991;50.040;18.400;2024-03-02T01:50:24;48.47;;;19.73;;
74510;SDS011;62991;50.040;18.400;2024-03-02T01:53:29;48.28;;;19.13;;
74510;SDS011;62991;50.040;18.400;2024-03-02T01:56:30;49.38;;;20.38;;
74510;SDS011;62991;50.040;18.400;2024-03-02T01:59:31;49.08;;;18.67;;
74510;SDS011;62991;50.040;18.400;2024-03-02T02:02:31;42.53;;;18.17;;
74510;SDS011;62991;50.040;18.400;2024-03-02T02:05:32;47.97;;;20.92;;
74510;SDS011;62991;50.040;18.400;2024-03-02T02:08:36;52.25;;;19.70;;
74510;SDS011;62991;50.040;18.400;2024-03-02T02:11:37;52.85;;;19.58;;
74510;SDS011;62991;50.040;18.400;2024-03-02T02:14:38;52.38;;;20.60;;
74510;SDS011;62991;50.040;18.400;2024-03-02T02:17:43;49.13;;;19.25;;
74510;SDS011;62991;50.040;18.400;2024-03-02T02:20:43;45.03;;;18.45;;
74510;SDS011;62991;50.040;18.400;2024-03-02T02:23:44;50.28;;;18.38;;
74510;SDS011;62991;50.040;18.400;2024-03-02T02:26:48;49.83;;;20.20;;
74510;SDS011;62991;50.040;18.400;2024-03-02T02:29:49;49.20;;;19.50;;
74510;SDS011;62991;50.040;18.400;2024-03-02T02:32:49;44.90;;;19.45;;
74510;SDS011;62991;50.040;18.400;2024-03-02T02:35:50;48.50;;;18.42;;
74510;SDS011;62991;50.040;18.400;2024-03-02T02:38:51;45.97;;;19.65;;
74510;SDS011;62991;50.040;18.400;2024-03-02T02:41:52;47.25;;;19.48;;
74510;SDS011;62991;50.040;18.400;2024-03-02T02:44:53;40.45;;;19.48;;
74510;SDS011;62991;50.040;18.400;2024-03-02T02:47:53;46.00;;;18.30;;
74510;SDS011;62991;50.040;18.400;2024-03-02T02:50:54;47.10;;;19.55;;
74510;SDS011;62991;50.040;18.400;2024-03-02T02:53:55;49.63;;;20.02;;
74510;SDS011;62991;50.040;18.400;2024-03-02T02:56:55;47.28;;;19.38;;
74510;SDS011;62991;50.040;18.400;2024-03-02T02:59:56;42.50;;;19.45;;
74510;SDS011;62991;50.040;18.400;2024-03-02T03:02:57;49.10;;;20.23;;
74510;SDS011;62991;50.040;18.400;2024-03-02T03:05:57;46.03;;;19.75;;
74510;SDS011;62991;50.040;18.400;2024-03-02T03:08:58;47.72;;;18.45;;
74510;SDS011;62991;50.040;18.400;2024-03-02T03:11:59;48.25;;;19.42;;
74510;SDS011;62991;50.040;18.400;2024-03-02T03:14:59;49.90;;;19.65;;
74510;SDS011;62991;50.040;18.400;2024-03-02T03:18:00;42.03;;;18.92;;
74510;SDS011;62991;50.040;18.400;2024-03-02T03:21:01;48.13;;;19.10;;
74510;SDS011;62991;50.040;18.400;2024-03-02T03:24:02;43.78;;;19.30;;
74510;SDS011;62991;50.040;18.400;2024-03-02T03:27:03;41.35;;;19.17;;
74510;SDS011;62991;50.040;18.400;2024-03-02T03:30:04;51.55;;;20.15;;
74510;SDS011;62991;50.040;18.400;2024-03-02T03:33:06;55.15;;;20.00;;
74510;SDS011;62991;50.040;18.400;2024-03-02T03:36:06;49.78;;;20.85;;
74510;SDS011;62991;50.040;18.400;2024-03-02T03:39:07;53.45;;;21.60;;
74510;SDS011;62991;50.040;18.400;2024-03-02T03:42:08;52.55;;;21.30;;
74510;SDS011;62991;50.040;18.400;2024-03-02T03:45:08;54.40;;;20.98;;
74510;SDS011;62991;50.040;18.400;2024-03-02T03:48:09;47.50;;;19.65;;
74510;SDS011;62991;50.040;18.400;2024-03-02T03:51:10;50.25;;;20.88;;
74510;SDS011;62991;50.040;18.400;2024-03-02T03:54:11;47.80;;;19.80;;
74510;SDS011;62991;50.040;18.400;2024-03-02T03:57:11;50.67;;;20.77;;
74510;SDS011;62991;50.040;18.400;2024-03-02T04:00:12;42.55;;;18.88;;
74510;SDS011;62991;50.040;18.400;2024-03-02T04:03:13;48.00;;;19.15;;
74510;SDS011;62991;50.040;18.400;2024-03-02T04:06:14;49.60;;;19.38;;
74510;SDS011;62991;50.040;18.400;2024-03-02T04:09:16;49.15;;;18.80;;
74510;SDS011;62991;50.040;18.400;2024-03-02T04:12:17;47.40;;;18.08;;
74510;SDS011;62991;50.040;18.400;2024-03-02T04:15:17;51.28;;;20.33;;
74510;SDS011;62991;50.040;18.400;2024-03-02T04:18:19;44.92;;;18.80;;
74510;SDS011;62991;50.040;18.400;2024-03-02T04:21:19;48.30;;;19.02;;
74510;SDS011;62991;50.040;18.400;2024-03-02T04:24:20;46.67;;;18.38;;
74510;SDS011;62991;50.040;18.400;2024-03-02T04:27:21;46.45;;;18.55;;
74510;SDS011;62991;50.040;18.400;2024-03-02T04:30:21;38.65;;;17.08;;
74510;SDS011;62991;50.040;18.400;2024-03-02T04:33:22;47.17;;;17.75;;
74510;SDS011;62991;50.040;18.400;2024-03-02T04:36:23;49.85;;;18.45;;
74510;SDS011;62991;50.040;18.400;2024-03-02T04:39:23;51.75;;;19.50;;
74510;SDS011;62991;50.040;18.400;2024-03-02T04:42:25;40.78;;;18.52;;
74510;SDS011;62991;50.040;18.400;2024-03-02T04:45:25;48.03;;;19.10;;
74510;SDS011;62991;50.040;18.400;2024-03-02T04:48:26;44.25;;;17.83;;
74510;SDS011;62991;50.040;18.400;2024-03-02T04:51:27;54.22;;;19.42;;
74510;SDS011;62991;50.040;18.400;2024-03-02T04:54:28;46.28;;;19.52;;
74510;SDS011;62991;50.040;18.400;2024-03-02T04:57:28;47.53;;;18.38;;
74510;SDS011;62991;50.040;18.400;2024-03-02T05:00:29;46.47;;;18.73;;
74510;SDS011;62991;50.040;18.400;2024-03-02T05:03:30;48.47;;;19.73;;
74510;SDS011;62991;50.040;18.400;2024-03-02T05:06:30;45.70;;;17.33;;
74510;SDS011;62991;50.040;18.400;2024-03-02T05:09:31;43.70;;;17.45;;
74510;SDS011;62991;50.040;18.400;2024-03-02T05:12:32;47.45;;;18.20;;
74510;SDS011;62991;50.040;18.400;2024-03-02T05:15:56;44.22;;;18.42;;
74510;SDS011;62991;50.040;18.400;2024-03-02T05:18:56;46.75;;;19.05;;
74510;SDS011;62991;50.040;18.400;2024-03-02T05:21:57;51.55;;;20.88;;
74510;SDS011;62991;50.040;18.400;2024-03-02T05:24:58;47.97;;;20.20;;
74510;SDS011;62991;50.040;18.400;2024-03-02T05:27:59;52.22;;;19.70;;
74510;SDS011;62991;50.040;18.400;2024-03-02T05:31:00;46.78;;;20.58;;
74510;SDS011;62991;50.040;18.400;2024-03-02T05:34:01;46.80;;;18.83;;
74510;SDS011;62991;50.040;18.400;2024-03-02T05:37:02;41.30;;;17.60;;
74510;SDS011;62991;50.040;18.400;2024-03-02T05:40:03;47.65;;;18.05;;
74510;SDS011;62991;50.040;18.400;2024-03-02T05:43:05;41.97;;;18.80;;
74510;SDS011;62991;50.040;18.400;2024-03-02T05:46:06;49.75;;;20.73;;
74510;SDS011;62991;50.040;18.400;2024-03-02T05:49:07;46.55;;;19.10;;
74510;SDS011;62991;50.040;18.400;2024-03-02T05:52:08;51.03;;;20.08;;
74510;SDS011;62991;50.040;18.400;2024-03-02T05:55:08;46.70;;;17.70;;
74510;SDS011;62991;50.040;18.400;2024-03-02T05:58:09;47.47;;;20.17;;
74510;SDS011;62991;50.040;18.400;2024-03-02T06:01:27;47.05;;;18.75;;
74510;SDS011;62991;50.040;18.400;2024-03-02T06:04:29;42.17;;;17.40;;
74510;SDS011;62991;50.040;18.400;2024-03-02T06:07:30;42.65;;;16.15;;
74510;SDS011;62991;50.040;18.400;2024-03-02T06:10:30;35.92;;;15.77;;
74510;SDS011;62991;50.040;18.400;2024-03-02T06:13:31;35.58;;;14.98;;
74510;SDS011;62991;50.040;18.400;2024-03-02T06:16:32;43.33;;;17.85;;
74510;SDS011;62991;50.040;18.400;2024-03-02T06:19:33;47.22;;;18.92;;
74510;SDS011;62991;50.040;18.400;2024-03-02T06:22:34;50.17;;;18.92;;
74510;SDS011;62991;50.040;18.400;2024-03-02T06:25:35;49.28;;;18.08;;
74510;SDS011;62991;50.040;18.400;2024-03-02T06:28:36;50.92;;;18.83;;
74510;SDS011;62991;50.040;18.400;2024-03-02T06:31:36;45.10;;;20.00;;
74510;SDS011;62991;50.040;18.400;2024-03-02T06:34:37;48.33;;;19.55;;
74510;SDS011;62991;50.040;18.400;2024-03-02T06:37:38;50.55;;;20.38;;
74510;SDS011;62991;50.040;18.400;2024-03-02T06:40:41;49.80;;;20.60;;
74510;SDS011;62991;50.040;18.400;2024-03-02T06:43:42;60.70;;;21.73;;
74510;SDS011;62991;50.040;18.400;2024-03-02T06:46:43;45.67;;;20.40;;
74510;SDS011;62991;50.040;18.400;2024-03-02T06:49:43;48.45;;;20.88;;
74510;SDS011;62991;50.040;18.400;2024-03-02T06:52:44;49.67;;;20.40;;
74510;SDS011;62991;50.040;18.400;2024-03-02T06:55:45;52.40;;;21.48;;
74510;SDS011;62991;50.040;18.400;2024-03-02T06:58:46;47.42;;;19.88;;
74510;SDS011;62991;50.040;18.400;2024-03-02T07:01:47;56.38;;;21.92;;
74510;SDS011;62991;50.040;18.400;2024-03-02T07:04:48;52.42;;;20.48;;
74510;SDS011;62991;50.040;18.400;2024-03-02T07:07:48;56.83;;;22.02;;
74510;SDS011;62991;50.040;18.400;2024-03-02T07:10:49;44.58;;;19.90;;
74510;SDS011;62991;50.040;18.400;2024-03-02T07:13:50;42.38;;;17.95;;
74510;SDS011;62991;50.040;18.400;2024-03-02T07:16:50;41.83;;;17.45;;
74510;SDS011;62991;50.040;18.400;2024-03-02T07:19:51;42.58;;;17.63;;
74510;SDS011;62991;50.040;18.400;2024-03-02T07:22:52;36.35;;;16.70;;
74510;SDS011;62991;50.040;18.400;2024-03-02T07:25:53;44.70;;;17.73;;
74510;SDS011;62991;50.040;18.400;2024-03-02T07:28:56;40.47;;;18.58;;
74510;SDS011;62991;50.040;18.400;2024-03-02T07:31:57;38.95;;;18.13;;
74510;SDS011;62991;50.040;18.400;2024-03-02T07:34:58;45.42;;;17.90;;
74510;SDS011;62991;50.040;18.400;2024-03-02T07:37:59;36.95;;;17.27;;
74510;SDS011;62991;50.040;18.400;2024-03-02T07:40:59;41.33;;;16.60;;
74510;SDS011;62991;50.040;18.400;2024-03-02T07:44:00;49.42;;;18.25;;
74510;SDS011;62991;50.040;18.400;2024-03-02T07:47:01;35.95;;;15.85;;
74510;SDS011;62991;50.040;18.400;2024-03-02T07:50:02;34.28;;;13.68;;
74510;SDS011;62991;50.040;18.400;2024-03-02T07:53:03;33.35;;;14.00;;
74510;SDS011;62991;50.040;18.400;2024-03-02T07:56:04;31.02;;;13.60;;
74510;SDS011;62991;50.040;18.400;2024-03-02T07:59:06;24.38;;;11.95;;
74510;SDS011;62991;50.040;18.400;2024-03-02T08:02:07;26.38;;;11.68;;
74510;SDS011;62991;50.040;18.400;2024-03-02T08:05:08;29.80;;;12.18;;
74510;SDS011;62991;50.040;18.400;2024-03-02T08:08:08;28.00;;;11.68;;
74510;SDS011;62991;50.040;18.400;2024-03-02T08:11:09;30.08;;;12.60;;
74510;SDS011;62991;50.040;18.400;2024-03-02T08:14:10;26.33;;;11.52;;
74510;SDS011;62991;50.040;18.400;2024-03-02T08:17:11;19.35;;;9.57;;
74510;SDS011;62991;50.040;18.400;2024-03-02T08:20:11;26.65;;;11.55;;
74510;SDS011;62991;50.040;18.400;2024-03-02T08:23:12;30.67;;;12.68;;
74510;SDS011;62991;50.040;18.400;2024-03-02T08:26:13;27.45;;;11.95;;
74510;SDS011;62991;50.040;18.400;2024-03-02T08:29:14;25.15;;;11.15;;
74510;SDS011;62991;50.040;18.400;2024-03-02T08:32:14;22.98;;;11.63;;
74510;SDS011;62991;50.040;18.400;2024-03-02T08:35:17;26.95;;;11.00;;
74510;SDS011;62991;50.040;18.400;2024-03-02T08:38:18;34.58;;;13.63;;
74510;SDS011;62991;50.040;18.400;2024-03-02T08:41:18;30.35;;;14.48;;
74510;SDS011;62991;50.040;18.400;2024-03-02T08:44:19;36.25;;;15.93;;
74510;SDS011;62991;50.040;18.400;2024-03-02T08:47:20;40.42;;;16.45;;
74510;SDS011;62991;50.040;18.400;2024-03-02T08:50:20;38.10;;;16.92;;
74510;SDS011;62991;50.040;18.400;2024-03-02T08:53:21;43.35;;;18.65;;
74510;SDS011;62991;50.040;18.400;2024-03-02T08:56:22;49.67;;;20.95;;
74510;SDS011;62991;50.040;18.400;2024-03-02T08:59:23;78.80;;;36.03;;
74510;SDS011;62991;50.040;18.400;2024-03-02T09:02:25;82.32;;;35.10;;
74510;SDS011;62991;50.040;18.400;2024-03-02T09:05:26;95.78;;;39.70;;
74510;SDS011;62991;50.040;18.400;2024-03-02T09:08:26;90.07;;;40.50;;
74510;SDS011;62991;50.040;18.400;2024-03-02T09:11:27;76.03;;;33.75;;
74510;SDS011;62991;50.040;18.400;2024-03-02T09:14:27;52.55;;;22.95;;
74510;SDS011;62991;50.040;18.400;2024-03-02T09:17:28;50.03;;;22.80;;
74510;SDS011;62991;50.040;18.400;2024-03-02T09:20:29;55.03;;;22.73;;
74510;SDS011;62991;50.040;18.400;2024-03-02T09:23:30;59.90;;;25.00;;
74510;SDS011;62991;50.040;18.400;2024-03-02T09:26:31;64.60;;;26.65;;
74510;SDS011;62991;50.040;18.400;2024-03-02T09:29:31;45.70;;;22.17;;
74510;SDS011;62991;50.040;18.400;2024-03-02T09:32:32;44.15;;;19.10;;
74510;SDS011;62991;50.040;18.400;2024-03-02T09:35:33;54.28;;;21.73;;
74510;SDS011;62991;50.040;18.400;2024-03-02T09:38:33;43.63;;;19.35;;
74510;SDS011;62991;50.040;18.400;2024-03-02T09:41:34;44.45;;;17.52;;
74510;SDS011;62991;50.040;18.400;2024-03-02T09:44:36;29.95;;;14.13;;
74510;SDS011;62991;50.040;18.400;2024-03-02T09:47:37;37.15;;;15.05;;
74510;SDS011;62991;50.040;18.400;2024-03-02T09:50:38;29.48;;;13.35;;
74510;SDS011;62991;50.040;18.400;2024-03-02T09:53:39;28.63;;;12.77;;
74510;SDS011;62991;50.040;18.400;2024-03-02T09:56:40;32.67;;;13.13;;
74510;SDS011;62991;50.040;18.400;2024-03-02T09:59:41;29.17;;;13.25;;
74510;SDS011;62991;50.040;18.400;2024-03-02T10:02:42;39.22;;;14.80;;
74510;SDS011;62991;50.040;18.400;2024-03-02T10:05:42;37.38;;;16.10;;
74510;SDS011;62991;50.040;18.400;2024-03-02T10:08:43;34.78;;;13.35;;
74510;SDS011;62991;50.040;18.400;2024-03-02T10:11:44;42.10;;;16.17;;
74510;SDS011;62991;50.040;18.400;2024-03-02T10:14:44;37.17;;;14.52;;
74510;SDS011;62991;50.040;18.400;2024-03-02T10:17:45;33.45;;;12.45;;
74510;SDS011;62991;50.040;18.400;2024-03-02T10:20:46;33.97;;;15.30;;
74510;SDS011;62991;50.040;18.400;2024-03-02T10:23:48;42.45;;;16.92;;
74510;SDS011;62991;50.040;18.400;2024-03-02T10:26:49;46.83;;;18.50;;
74510;SDS011;62991;50.040;18.400;2024-03-02T10:29:51;39.45;;;14.52;;
74510;SDS011;62991;50.040;18.400;2024-03-02T10:32:52;37.08;;;16.30;;
74510;SDS011;62991;50.040;18.400;2024-03-02T10:35:54;44.03;;;18.10;;
74510;SDS011;62991;50.040;18.400;2024-03-02T10:38:58;40.45;;;14.95;;
74510;SDS011;62991;50.040;18.400;2024-03-02T10:41:59;32.28;;;13.65;;
74510;SDS011;62991;50.040;18.400;2024-03-02T10:45:03;30.30;;;14.15;;
74510;SDS011;62991;50.040;18.400;2024-03-02T10:48:08;22.50;;;9.45;;
74510;SDS011;62991;50.040;18.400;2024-03-02T10:51:09;34.65;;;12.55;;
74510;SDS011;62991;50.040;18.400;2024-03-02T10:54:10;20.92;;;8.88;;
74510;SDS011;62991;50.040;18.400;2024-03-02T10:57:11;23.10;;;8.05;;
74510;SDS011;62991;50.040;18.400;2024-03-02T11:00:14;22.25;;;8.30;;
74510;SDS011;62991;50.040;18.400;2024-03-02T11:03:15;23.40;;;8.65;;
74510;SDS011;62991;50.040;18.400;2024-03-02T11:06:16;26.67;;;10.02;;
74510;SDS011;62991;50.040;18.400;2024-03-02T11:09:18;22.25;;;10.27;;
74510;SDS011;62991;50.040;18.400;2024-03-02T11:12:23;21.02;;;10.43;;
74510;SDS011;62991;50.040;18.400;2024-03-02T11:15:30;24.27;;;11.05;;
74510;SDS011;62991;50.040;18.400;2024-03-02T11:18:32;28.75;;;11.48;;
74510;SDS011;62991;50.040;18.400;2024-03-02T11:21:34;23.88;;;11.15;;
74510;SDS011;62991;50.040;18.400;2024-03-02T11:24:36;30.77;;;10.98;;
74510;SDS011;62991;50.040;18.400;2024-03-02T11:28:19;30.30;;;11.27;;
74510;SDS011;62991;50.040;18.400;2024-03-02T11:31:04;29.08;;;13.10;;
74510;SDS011;62991;50.040;18.400;2024-03-02T11:34:38;28.73;;;12.20;;
74510;SDS011;62991;50.040;18.400;2024-03-02T11:37:33;28.23;;;12.02;;
74510;SDS011;62991;50.040;18.400;2024-03-02T11:40:35;31.88;;;13.55;;
74510;SDS011;62991;50.040;18.400;2024-03-02T11:43:39;23.25;;;10.70;;
74510;SDS011;62991;50.040;18.400;2024-03-02T11:46:42;37.65;;;16.00;;
74510;SDS011;62991;50.040;18.400;2024-03-02T11:49:46;34.95;;;15.48;;
74510;SDS011;62991;50.040;18.400;2024-03-02T11:52:50;32.15;;;13.27;;
74510;SDS011;62991;50.040;18.400;2024-03-02T11:55:51;35.80;;;15.13;;
74510;SDS011;62991;50.040;18.400;2024-03-02T11:58:54;34.95;;;14.13;;
74510;SDS011;62991;50.040;18.400;2024-03-02T12:01:55;43.85;;;20.05;;
74510;SDS011;62991;50.040;18.400;2024-03-02T12:04:57;29.40;;;14.02;;
74510;SDS011;62991;50.040;18.400;2024-03-02T12:07:58;24.23;;;11.65;;
74510;SDS011;62991;50.040;18.400;2024-03-02T12:11:01;41.42;;;16.13;;
74510;SDS011;62991;50.040;18.400;2024-03-02T12:14:02;37.13;;;15.00;;
74510;SDS011;62991;50.040;18.400;2024-03-02T12:17:05;36.13;;;14.13;;
74510;SDS011;62991;50.040;18.400;2024-03-02T12:20:06;45.40;;;18.77;;
74510;SDS011;62991;50.040;18.400;2024-03-02T12:23:07;25.83;;;11.73;;
74510;SDS011;62991;50.040;18.400;2024-03-02T12:26:08;25.05;;;11.80;;
74510;SDS011;62991;50.040;18.400;2024-03-02T12:29:08;27.38;;;12.02;;
74510;SDS011;62991;50.040;18.400;2024-03-02T12:32:09;29.35;;;12.38;;
74510;SDS011;62991;50.040;18.400;2024-03-02T12:35:10;19.95;;;8.73;;
74510;SDS011;62991;50.040;18.400;2024-03-02T12:41:15;8.10;;;4.60;;
74510;SDS011;62991;50.040;18.400;2024-03-02T12:44:17;15.68;;;5.05;;
74510;SDS011;62991;50.040;18.400;2024-03-02T12:47:18;8.98;;;3.78;;
74510;SDS011;62991;50.040;18.400;2024-03-02T12:50:19;9.25;;;5.28;;
74510;SDS011;62991;50.040;18.400;2024-03-02T12:53:21;5.05;;;2.38;;
74510;SDS011;62991;50.040;18.400;2024-03-02T12:56:22;6.68;;;3.35;;
74510;SDS011;62991;50.040;18.400;2024-03-02T12:59:24;7.15;;;3.72;;
74510;SDS011;62991;50.040;18.400;2024-03-02T13:02:30;10.18;;;3.78;;
74510;SDS011;62991;50.040;18.400;2024-03-02T13:05:31;7.38;;;3.38;;
74510;SDS011;62991;50.040;18.400;2024-03-02T13:08:33;19.38;;;6.90;;
74510;SDS011;62991;50.040;18.400;2024-03-02T13:11:34;11.82;;;4.72;;
74510;SDS011;62991;50.040;18.400;2024-03-02T13:14:35;8.57;;;3.53;;
74510;SDS011;62991;50.040;18.400;2024-03-02T13:17:36;10.05;;;4.15;;
74510;SDS011;62991;50.040;18.400;2024-03-02T13:20:38;11.63;;;4.95;;
74510;SDS011;62991;50.040;18.400;2024-03-02T13:23:40;14.93;;;5.47;;
74510;SDS011;62991;50.040;18.400;2024-03-02T13:26:40;14.80;;;5.43;;
74510;SDS011;62991;50.040;18.400;2024-03-02T13:29:44;22.52;;;7.32;;
74510;SDS011;62991;50.040;18.400;2024-03-02T13:32:46;19.42;;;7.25;;
74510;SDS011;62991;50.040;18.400;2024-03-02T13:35:47;16.60;;;8.23;;
74510;SDS011;62991;50.040;18.400;2024-03-02T13:38:49;22.38;;;10.90;;
74510;SDS011;62991;50.040;18.400;2024-03-02T13:41:50;67.45;;;24.40;;
74510;SDS011;62991;50.040;18.400;2024-03-02T13:45:02;21.30;;;8.68;;
74510;SDS011;62991;50.040;18.400;2024-03-02T13:48:04;30.15;;;12.50;;
74510;SDS011;62991;50.040;18.400;2024-03-02T13:51:05;53.20;;;21.55;;
74510;SDS011;62991;50.040;18.400;2024-03-02T13:54:06;54.70;;;23.10;;
74510;SDS011;62991;50.040;18.400;2024-03-02T13:57:07;62.17;;;25.08;;
74510;SDS011;62991;50.040;18.400;2024-03-02T14:00:08;44.67;;;18.13;;
74510;SDS011;62991;50.040;18.400;2024-03-02T14:03:12;46.65;;;19.58;;
74510;SDS011;62991;50.040;18.400;2024-03-02T14:06:12;32.85;;;13.50;;
74510;SDS011;62991;50.040;18.400;2024-03-02T14:09:13;26.92;;;10.55;;
74510;SDS011;62991;50.040;18.400;2024-03-02T14:12:15;23.33;;;11.68;;
74510;SDS011;62991;50.040;18.400;2024-03-02T14:15:15;18.33;;;8.32;;
74510;SDS011;62991;50.040;18.400;2024-03-02T14:18:16;16.05;;;6.95;;
74510;SDS011;62991;50.040;18.400;2024-03-02T14:21:17;19.10;;;9.90;;
74510;SDS011;62991;50.040;18.400;2024-03-02T14:24:17;19.60;;;9.48;;
74510;SDS011;62991;50.040;18.400;2024-03-02T14:27:18;14.13;;;6.95;;
74510;SDS011;62991;50.040;18.400;2024-03-02T14:30:19;20.02;;;9.60;;
74510;SDS011;62991;50.040;18.400;2024-03-02T14:33:19;25.83;;;11.00;;
74510;SDS011;62991;50.040;18.400;2024-03-02T14:36:20;49.83;;;17.13;;
74510;SDS011;62991;50.040;18.400;2024-03-02T14:39:21;33.45;;;13.13;;
74510;SDS011;62991;50.040;18.400;2024-03-02T14:42:22;19.65;;;8.50;;
74510;SDS011;62991;50.040;18.400;2024-03-02T14:45:22;19.50;;;7.90;;
74510;SDS011;62991;50.040;18.400;2024-03-02T14:48:24;18.42;;;8.27;;
74510;SDS011;62991;50.040;18.400;2024-03-02T14:51:25;19.17;;;9.20;;
74510;SDS011;62991;50.040;18.400;2024-03-02T14:54:25;15.63;;;7.10;;
74510;SDS011;62991;50.040;18.400;2024-03-02T14:57:26;15.27;;;7.10;;
74510;SDS011;62991;50.040;18.400;2024-03-02T15:00:27;15.68;;;7.32;;
74510;SDS011;62991;50.040;18.400;2024-03-02T15:03:27;18.73;;;7.50;;
74510;SDS011;62991;50.040;18.400;2024-03-02T15:06:28;17.67;;;7.25;;
74510;SDS011;62991;50.040;18.400;2024-03-02T15:09:29;16.83;;;7.85;;
74510;SDS011;62991;50.040;18.400;2024-03-02T15:12:30;16.65;;;7.70;;
74510;SDS011;62991;50.040;18.400;2024-03-02T15:15:31;17.15;;;7.45;;
74510;SDS011;62991;50.040;18.400;2024-03-02T15:18:32;16.92;;;7.30;;
74510;SDS011;62991;50.040;18.400;2024-03-02T15:21:34;18.85;;;8.70;;
74510;SDS011;62991;50.040;18.400;2024-03-02T15:24:35;16.20;;;7.53;;
74510;SDS011;62991;50.040;18.400;2024-03-02T15:27:36;17.77;;;7.70;;
74510;SDS011;62991;50.040;18.400;2024-03-02T15:30:37;22.10;;;8.98;;
74510;SDS011;62991;50.040;18.400;2024-03-02T15:33:37;18.98;;;8.07;;
74510;SDS011;62991;50.040;18.400;2024-03-02T15:36:38;23.95;;;7.68;;
74510;SDS011;62991;50.040;18.400;2024-03-02T15:39:39;18.92;;;8.23;;
74510;SDS011;62991;50.040;18.400;2024-03-02T15:42:39;18.98;;;8.13;;
74510;SDS011;62991;50.040;18.400;2024-03-02T15:45:40;22.23;;;9.13;;
74510;SDS011;62991;50.040;18.400;2024-03-02T15:48:41;24.17;;;10.38;;
74510;SDS011;62991;50.040;18.400;2024-03-02T15:51:41;26.10;;;10.65;;
74510;SDS011;62991;50.040;18.400;2024-03-02T15:54:44;26.42;;;10.38;;
74510;SDS011;62991;50.040;18.400;2024-03-02T15:57:45;25.02;;;10.07;;
74510;SDS011;62991;50.040;18.400;2024-03-02T16:00:46;21.33;;;9.75;;
74510;SDS011;62991;50.040;18.400;2024-03-02T16:03:47;22.10;;;9.45;;
74510;SDS011;62991;50.040;18.400;2024-03-02T16:06:48;21.55;;;9.70;;
74510;SDS011;62991;50.040;18.400;2024-03-02T16:09:48;21.95;;;9.45;;
74510;SDS011;62991;50.040;18.400;2024-03-02T16:12:49;21.33;;;9.27;;
74510;SDS011;62991;50.040;18.400;2024-03-02T16:15:50;21.67;;;9.23;;
74510;SDS011;62991;50.040;18.400;2024-03-02T16:18:50;18.65;;;8.85;;
74510;SDS011;62991;50.040;18.400;2024-03-02T16:21:51;21.85;;;9.55;;
74510;SDS011;62991;50.040;18.400;2024-03-02T16:24:52;17.00;;;7.85;;
74510;SDS011;62991;50.040;18.400;2024-03-02T16:27:52;16.17;;;7.13;;
74510;SDS011;62991;50.040;18.400;2024-03-02T16:30:54;37.30;;;18.70;;
74510;SDS011;62991;50.040;18.400;2024-03-02T16:33:55;25.65;;;12.98;;
74510;SDS011;62991;50.040;18.400;2024-03-02T16:36:55;27.42;;;11.57;;
74510;SDS011;62991;50.040;18.400;2024-03-02T16:39:56;23.42;;;11.30;;
74510;SDS011;62991;50.040;18.400;2024-03-02T16:42:57;30.08;;;11.13;;
74510;SDS011;62991;50.040;18.400;2024-03-02T16:45:58;24.45;;;10.25;;
74510;SDS011;62991;50.040;18.400;2024-03-02T16:48:58;23.95;;;9.93;;
74510;SDS011;62991;50.040;18.400;2024-03-02T16:51:59;23.05;;;9.85;;
74510;SDS011;62991;50.040;18.400;2024-03-02T16:55:00;27.13;;;11.27;;
74510;SDS011;62991;50.040;18.400;2024-03-02T16:58:01;35.25;;;13.40;;
74510;SDS011;62991;50.040;18.400;2024-03-02T17:01:02;35.67;;;13.85;;
74510;SDS011;62991;50.040;18.400;2024-03-02T17:04:03;41.97;;;15.63;;
74510;SDS011;62991;50.040;18.400;2024-03-02T17:07:06;44.03;;;16.60;;
74510;SDS011;62991;50.040;18.400;2024-03-02T17:10:06;40.38;;;16.58;;
74510;SDS011;62991;50.040;18.400;2024-03-02T17:13:07;39.78;;;15.90;;
74510;SDS011;62991;50.040;18.400;2024-03-02T17:16:10;33.75;;;14.55;;
74510;SDS011;62991;50.040;18.400;2024-03-02T17:19:11;35.78;;;13.75;;
74510;SDS011;62991;50.040;18.400;2024-03-02T17:22:11;27.58;;;12.15;;
74510;SDS011;62991;50.040;18.400;2024-03-02T17:25:12;34.17;;;13.70;;
74510;SDS011;62991;50.040;18.400;2024-03-02T17:28:22;29.27;;;12.63;;
74510;SDS011;62991;50.040;18.400;2024-03-02T17:31:25;24.17;;;11.38;;